createdAt,value
2023-02-27T00:00:29.102Z,2.00
2023-02-27T00:02:56.167Z,1.33
2023-02-27T00:05:23.003Z,2.00
2023-02-27T00:07:50.756Z,2.33
2023-02-27T00:10:18.627Z,1.00
2023-02-27T00:12:45.475Z,3.00
2023-02-27T00:15:16.876Z,1.00
2023-02-27T00:17:45.200Z,1.00
2023-02-27T00:20:16.256Z,3.00
2023-02-27T00:22:44.282Z,3.00
2023-02-27T00:25:12.707Z,2.00
2023-02-27T00:27:40.158Z,2.00
2023-02-27T00:30:12.104Z,1.33
2023-02-27T00:32:41.016Z,1.33
2023-02-27T00:35:11.382Z,3.33
2023-02-27T00:37:39.333Z,2.00
2023-02-27T00:40:08.681Z,2.33
2023-02-27T00:42:35.756Z,2.00
2023-02-27T00:45:03.252Z,2.00
2023-02-27T00:47:31.977Z,2.67
2023-02-27T00:50:00.174Z,3.00
2023-02-27T00:52:28.083Z,1.67
2023-02-27T00:54:54.972Z,2.00
2023-02-27T00:57:22.682Z,2.00
2023-02-27T00:59:50.150Z,2.00
2023-02-27T01:02:17.301Z,2.67
2023-02-27T01:04:44.445Z,2.00
2023-02-27T01:07:13.555Z,1.33
2023-02-27T01:09:40.386Z,2.33
2023-02-27T01:12:08.020Z,2.00
2023-02-27T01:14:35.879Z,3.00
2023-02-27T01:17:03.345Z,3.00
2023-02-27T01:19:31.512Z,2.33
2023-02-27T01:21:58.353Z,3.33
2023-02-27T01:24:27.236Z,0.33
2023-02-27T01:26:54.033Z,3.00
2023-02-27T01:29:20.878Z,2.00
2023-02-27T01:31:47.839Z,2.00
2023-02-27T01:34:15.011Z,1.67
2023-02-27T01:36:42.145Z,1.67
2023-02-27T01:39:08.930Z,2.00
2023-02-27T01:41:37.223Z,2.00
2023-02-27T01:44:07.996Z,2.00
2023-02-27T01:46:38.824Z,1.67
2023-02-27T01:49:11.668Z,2.00
2023-02-27T01:51:45.122Z,2.00
2023-02-27T01:54:17.126Z,2.00
2023-02-27T01:56:46.220Z,2.00
2023-02-27T01:59:15.889Z,2.00
2023-02-27T02:01:42.996Z,1.33
2023-02-27T02:04:22.664Z,1.00
2023-02-27T02:06:59.401Z,2.00
2023-02-27T02:09:28.336Z,3.00
2023-02-27T02:11:59.725Z,2.00
2023-02-27T02:14:26.611Z,1.00
2023-02-27T02:17:13.460Z,1.00
2023-02-27T02:21:06.759Z,2.00
2023-02-27T02:24:16.931Z,2.00
2023-02-27T02:26:56.479Z,1.67
2023-02-27T02:30:22.436Z,3.00
2023-02-27T02:33:27.889Z,1.33
2023-02-27T02:37:13.018Z,1.00
2023-02-27T02:40:06.001Z,2.00
2023-02-27T02:42:45.337Z,2.00
2023-02-27T02:45:22.874Z,1.33
2023-02-27T02:48:03.879Z,5.00
2023-02-27T02:50:41.464Z,1.00
2023-02-27T02:53:17.995Z,1.00
2023-02-27T02:55:57.716Z,2.00
2023-02-27T02:58:33.066Z,1.33
2023-02-27T03:01:10.584Z,3.33
2023-02-27T03:03:45.410Z,2.00
2023-02-27T03:06:20.304Z,2.00
2023-02-27T03:08:55.799Z,2.00
2023-02-27T03:11:31.213Z,2.00
2023-02-27T03:14:10.637Z,2.00
2023-02-27T03:16:44.632Z,1.67
2023-02-27T03:19:18.148Z,0.00
2023-02-27T03:21:52.762Z,1.67
2023-02-27T03:24:26.804Z,3.67
2023-02-27T03:26:59.132Z,1.00
2023-02-27T03:29:38.249Z,4.67
2023-02-27T03:32:16.169Z,2.00
2023-02-27T03:34:45.324Z,1.00
2023-02-27T03:37:27.012Z,1.67
2023-02-27T03:40:12.369Z,2.00
2023-02-27T03:42:47.802Z,1.00
2023-02-27T03:45:32.974Z,1.67
2023-02-27T03:48:01.025Z,2.00
2023-02-27T03:50:28.423Z,2.00
2023-02-27T03:52:56.322Z,2.00
2023-02-27T03:55:32.489Z,2.00
2023-02-27T03:58:01.305Z,4.67
2023-02-27T04:00:29.377Z,0.67
2023-02-27T04:03:00.824Z,3.00
2023-02-27T04:05:29.878Z,3.33
2023-02-27T04:08:32.007Z,1.00
2023-02-27T04:11:28.186Z,1.00
2023-02-27T04:14:22.167Z,2.00
2023-02-27T04:17:14.416Z,2.00
2023-02-27T04:20:17.776Z,1.33
2023-02-27T04:22:52.185Z,1.67
2023-02-27T04:25:41.724Z,2.33
2023-02-27T04:28:17.634Z,2.00
2023-02-27T04:31:00.027Z,1.00
2023-02-27T04:33:42.458Z,1.67
2023-02-27T04:36:22.743Z,2.00
2023-02-27T04:39:01.778Z,4.00
2023-02-27T04:41:38.423Z,2.67
2023-02-27T04:44:11.205Z,3.33
2023-02-27T04:46:44.457Z,1.00
2023-02-27T04:49:18.597Z,1.33
2023-02-27T04:51:53.699Z,1.67
2023-02-27T04:54:30.611Z,2.00
2023-02-27T04:57:04.037Z,2.00
2023-02-27T04:59:39.704Z,1.00
2023-02-27T05:02:16.215Z,1.33
2023-02-27T05:04:46.494Z,2.67
2023-02-27T05:07:18.840Z,2.00
2023-02-27T05:09:54.518Z,1.67
2023-02-27T05:12:28.581Z,2.00
2023-02-27T05:15:03.922Z,1.33
2023-02-27T05:17:39.038Z,1.67
2023-02-27T05:20:07.488Z,4.00
2023-02-27T05:22:46.035Z,1.00
2023-02-27T05:25:23.932Z,5.33
2023-02-27T05:27:59.754Z,2.33
2023-02-27T05:30:36.520Z,2.00
2023-02-27T05:33:15.239Z,4.00
2023-02-27T05:35:51.874Z,4.00
2023-02-27T05:38:29.839Z,2.00
2023-02-27T05:41:08.347Z,2.00
2023-02-27T05:43:43.219Z,4.67
2023-02-27T05:46:17.586Z,3.33
2023-02-27T05:48:54.212Z,3.33
2023-02-27T05:51:27.793Z,2.00
2023-02-27T05:54:02.832Z,4.33
2023-02-27T05:56:36.426Z,4.00
2023-02-27T05:59:13.473Z,1.67
2023-02-27T06:01:40.435Z,3.33
2023-02-27T06:04:08.598Z,4.00
2023-02-27T06:06:36.719Z,2.00
2023-02-27T06:09:03.943Z,4.00
2023-02-27T06:11:30.860Z,3.33
2023-02-27T06:13:57.645Z,2.00
2023-02-27T06:16:24.618Z,2.00
2023-02-27T06:18:51.492Z,1.00
2023-02-27T06:21:19.607Z,4.00
2023-02-27T06:23:46.486Z,2.00
2023-02-27T06:26:13.370Z,2.00
2023-02-27T06:28:40.788Z,4.00
2023-02-27T06:31:08.114Z,2.00
2023-02-27T06:33:35.279Z,5.00
2023-02-27T06:36:02.387Z,5.00
2023-02-27T06:38:30.597Z,6.00
2023-02-27T06:40:57.627Z,5.33
2023-02-27T06:43:24.658Z,7.00
2023-02-27T06:45:54.540Z,7.00
2023-02-27T06:48:21.538Z,3.00
2023-02-27T06:50:52.362Z,3.67
2023-02-27T06:53:19.172Z,3.67
2023-02-27T06:55:47.405Z,3.00
2023-02-27T06:58:14.273Z,5.00
2023-02-27T07:00:41.484Z,5.67
2023-02-27T07:03:08.271Z,6.00
2023-02-27T07:05:35.414Z,4.00
2023-02-27T07:08:03.075Z,4.00
2023-02-27T07:10:30.405Z,2.75
2023-02-27T07:12:58.972Z,5.33
2023-02-27T07:15:25.843Z,5.00
2023-02-27T07:17:52.591Z,3.50
2023-02-27T07:20:19.784Z,2.00
2023-02-27T07:22:47.717Z,2.00
2023-02-27T07:25:14.503Z,1.00
2023-02-27T07:27:41.375Z,1.00
2023-02-27T07:30:12.061Z,1.00
2023-02-27T07:32:38.937Z,3.00
2023-02-27T07:35:07.822Z,4.00
2023-02-27T07:37:34.728Z,2.75
2023-02-27T07:40:01.538Z,4.00
2023-02-27T07:42:28.307Z,4.50
2023-02-27T07:44:58.167Z,2.75
2023-02-27T07:47:27.367Z,4.50
2023-02-27T07:49:57.205Z,3.50
2023-02-27T07:52:25.522Z,3.50
2023-02-27T07:54:52.513Z,4.75
2023-02-27T07:57:19.563Z,5.50
2023-02-27T07:59:46.733Z,5.00
2023-02-27T08:02:13.994Z,3.00
2023-02-27T08:04:42.225Z,4.50
2023-02-27T08:07:09.113Z,1.00
2023-02-27T08:09:35.910Z,6.00
2023-02-27T08:12:02.725Z,5.00
2023-02-27T08:14:32.608Z,3.75
2023-02-27T08:16:59.483Z,0.00
2023-02-27T08:19:26.363Z,3.00
2023-02-27T08:21:54.586Z,1.00
2023-02-27T08:24:21.445Z,1.00
2023-02-27T08:26:53.084Z,1.00
2023-02-27T08:29:20.160Z,2.00
2023-02-27T08:31:47.135Z,3.75
2023-02-27T08:34:14.567Z,3.00
2023-02-27T08:36:41.426Z,3.25
2023-02-27T08:39:09.940Z,3.00
2023-02-27T08:41:36.778Z,5.25
2023-02-27T08:44:05.656Z,1.00
2023-02-27T08:46:32.557Z,2.50
2023-02-27T08:48:59.511Z,3.00
2023-02-27T08:51:29.888Z,2.50
2023-02-27T08:53:57.876Z,4.00
2023-02-27T08:56:26.966Z,4.50
2023-02-27T08:58:57.193Z,3.00
2023-02-27T09:01:24.806Z,2.00
2023-02-27T09:03:51.739Z,2.75
2023-02-27T09:06:20.359Z,3.50
2023-02-27T09:08:47.199Z,2.75
2023-02-27T09:11:14.067Z,5.00
2023-02-27T09:13:42.132Z,3.00
2023-02-27T09:16:10.002Z,4.50
2023-02-27T09:18:36.752Z,3.00
2023-02-27T09:21:03.834Z,3.00
2023-02-27T09:23:30.650Z,3.00
2023-02-27T09:25:57.497Z,0.00
2023-02-27T09:28:24.281Z,3.25
2023-02-27T09:30:52.423Z,1.00
2023-02-27T09:33:19.194Z,2.00
2023-02-27T09:35:46.013Z,1.00
2023-02-27T09:38:12.870Z,3.25
2023-02-27T09:40:43.289Z,3.00
2023-02-27T09:43:17.188Z,2.25
2023-02-27T09:45:47.277Z,3.25
2023-02-27T09:48:28.179Z,2.75
2023-02-27T09:50:55.392Z,2.00
2023-02-27T09:53:29.348Z,3.00
2023-02-27T09:56:06.037Z,2.75
2023-02-27T09:58:49.956Z,3.00
2023-02-27T10:01:22.712Z,3.00
2023-02-27T10:04:17.101Z,1.00
2023-02-27T10:06:52.214Z,2.00
2023-02-27T10:09:37.644Z,3.25
2023-02-27T10:12:22.586Z,2.00
2023-02-27T10:14:57.672Z,3.00
2023-02-27T10:17:30.264Z,3.00
2023-02-27T10:20:03.403Z,2.00
2023-02-27T10:22:36.891Z,3.00
2023-02-27T10:25:28.474Z,3.75
2023-02-27T10:28:09.184Z,1.00
2023-02-27T10:30:36.723Z,0.75
2023-02-27T10:33:11.244Z,0.75
2023-02-27T10:35:43.741Z,1.00
2023-02-27T10:38:17.857Z,1.00
2023-02-27T10:40:47.740Z,2.00
2023-02-27T10:43:17.643Z,1.00
2023-02-27T10:45:44.753Z,4.00
2023-02-27T10:48:13.726Z,1.75
2023-02-27T10:50:46.119Z,3.00
2023-02-27T10:53:20.924Z,3.00
2023-02-27T10:56:01.398Z,4.00
2023-02-27T10:58:34.908Z,1.00
2023-02-27T11:01:05.924Z,0.75
2023-02-27T11:03:37.311Z,3.00
2023-02-27T11:06:17.949Z,4.00
2023-02-27T11:08:44.790Z,3.00
2023-02-27T11:11:14.894Z,3.00
2023-02-27T11:13:52.637Z,2.50
2023-02-27T11:16:21.127Z,3.00
2023-02-27T11:18:50.896Z,2.50
2023-02-27T11:21:23.607Z,1.00
2023-02-27T11:23:57.530Z,4.00
2023-02-27T11:26:30.966Z,3.75
2023-02-27T11:29:16.392Z,2.50
2023-02-27T11:31:53.181Z,3.00
2023-02-27T11:34:30.070Z,5.25
2023-02-27T11:37:09.885Z,3.00
2023-02-27T11:39:48.613Z,9.50
2023-02-27T11:42:31.061Z,4.00
2023-02-27T11:45:03.112Z,7.00
2023-02-27T11:47:34.523Z,0.25
2023-02-27T11:50:34.324Z,3.00
2023-02-27T11:53:26.709Z,1.00
2023-02-27T11:55:57.930Z,5.25
2023-02-27T11:58:30.222Z,6.00
2023-02-27T12:01:05.622Z,2.50
2023-02-27T12:03:47.245Z,3.00
2023-02-27T12:06:21.270Z,3.50
2023-02-27T12:08:56.397Z,5.00
2023-02-27T12:11:30.158Z,4.00
2023-02-27T12:14:04.159Z,5.00
2023-02-27T12:16:40.361Z,5.00
2023-02-27T12:19:18.041Z,3.00
2023-02-27T12:21:52.279Z,5.00
2023-02-27T12:24:28.816Z,4.00
2023-02-27T12:27:08.284Z,4.00
2023-02-27T12:29:43.560Z,4.25
2023-02-27T12:32:20.883Z,5.50
2023-02-27T12:34:53.825Z,4.50
2023-02-27T12:37:25.990Z,3.00
2023-02-27T12:39:59.695Z,3.00
2023-02-27T12:43:03.965Z,4.25
2023-02-27T12:46:11.153Z,3.50
2023-02-27T12:48:58.917Z,4.50
2023-02-27T12:51:40.329Z,5.50
2023-02-27T12:54:24.100Z,5.50
2023-02-27T12:57:13.345Z,4.75
2023-02-27T13:00:05.529Z,4.00
2023-02-27T13:02:51.302Z,5.00
2023-02-27T13:05:40.568Z,5.00
2023-02-27T13:08:20.850Z,5.25
2023-02-27T13:10:57.380Z,5.00
2023-02-27T13:13:33.944Z,4.00
2023-02-27T13:16:06.805Z,3.25
2023-02-27T13:18:43.530Z,3.00
2023-02-27T13:21:21.146Z,4.25
2023-02-27T13:24:06.944Z,4.00
2023-02-27T13:26:39.603Z,5.25
2023-02-27T13:29:14.940Z,4.50
2023-02-27T13:31:51.155Z,3.00
2023-02-27T13:34:30.473Z,4.50
2023-02-27T13:37:03.274Z,4.00
2023-02-27T13:39:51.560Z,4.75
2023-02-27T13:42:52.953Z,5.00
2023-02-27T13:45:52.732Z,5.50
2023-02-27T13:48:41.536Z,2.75
2023-02-27T13:51:26.462Z,5.00
2023-02-27T13:54:17.463Z,4.00
2023-02-27T13:56:48.282Z,2.00
2023-02-27T13:59:23.277Z,3.00
2023-02-27T14:01:58.037Z,1.25
2023-02-27T14:04:36.392Z,3.75
2023-02-27T14:07:10.997Z,4.50
2023-02-27T14:09:45.001Z,4.00
2023-02-27T14:12:45.424Z,4.75
2023-02-27T14:15:53.544Z,4.00
2023-02-27T14:18:52.462Z,3.00
2023-02-27T14:21:59.273Z,3.75
2023-02-27T14:24:35.385Z,5.25
2023-02-27T14:27:04.823Z,2.75
2023-02-27T14:29:34.924Z,5.00
2023-02-27T14:32:06.010Z,4.00
2023-02-27T14:34:41.002Z,2.25
2023-02-27T14:37:18.048Z,3.00
2023-02-27T14:39:49.695Z,1.00
2023-02-27T14:42:44.201Z,2.00
2023-02-27T14:45:18.929Z,0.50
2023-02-27T14:47:47.091Z,3.50
2023-02-27T14:50:28.919Z,2.25
2023-02-27T14:52:55.923Z,2.00
2023-02-27T14:55:26.496Z,2.00
2023-02-27T14:57:56.003Z,11.25
2023-02-27T15:00:36.883Z,3.00
2023-02-27T15:03:19.447Z,2.50
2023-02-27T15:05:52.606Z,3.25
2023-02-27T15:08:23.893Z,2.25
2023-02-27T15:10:52.877Z,2.00
2023-02-27T15:13:27.183Z,1.00
2023-02-27T15:16:31.145Z,1.00
2023-02-27T15:19:03.650Z,0.75
2023-02-27T15:21:39.406Z,1.00
2023-02-27T15:24:20.116Z,2.75
2023-02-27T15:26:53.376Z,2.75
2023-02-27T15:29:25.106Z,2.00
2023-02-27T15:31:53.555Z,1.00
2023-02-27T15:34:21.130Z,1.00
2023-02-27T15:36:54.603Z,2.00
2023-02-27T15:39:25.807Z,3.75
2023-02-27T15:41:55.969Z,5.00
2023-02-27T15:44:29.178Z,5.33
2023-02-27T15:46:58.085Z,4.00
2023-02-27T15:49:26.175Z,3.00
2023-02-27T15:52:02.520Z,3.00
2023-02-27T15:54:34.763Z,2.75
2023-02-27T15:57:04.818Z,2.00
2023-02-27T15:59:36.589Z,3.00
2023-02-27T16:02:05.931Z,4.00
2023-02-27T16:04:33.067Z,2.25
2023-02-27T16:07:06.422Z,3.00
2023-02-27T16:09:38.225Z,4.67
2023-02-27T16:12:30.943Z,3.25
2023-02-27T16:15:30.930Z,4.33
2023-02-27T16:18:02.754Z,18.00
2023-02-27T16:20:43.668Z,4.75
2023-02-27T16:23:23.247Z,7.00
2023-02-27T16:26:28.305Z,6.67
2023-02-27T16:29:00.475Z,17.00
2023-02-27T16:31:31.882Z,7.33
2023-02-27T16:34:14.419Z,6.67
2023-02-27T16:36:51.926Z,5.33
2023-02-27T16:39:20.293Z,6.67
2023-02-27T16:41:47.093Z,2.00
2023-02-27T16:44:13.956Z,4.00
2023-02-27T16:46:40.960Z,3.75
2023-02-27T16:49:20.377Z,4.50
2023-02-27T16:51:47.269Z,3.50
2023-02-27T16:54:14.473Z,6.67
2023-02-27T16:56:44.368Z,4.33
2023-02-27T16:59:28.655Z,6.33
2023-02-27T17:01:56.495Z,5.67
2023-02-27T17:04:26.111Z,6.00
2023-02-27T17:06:54.328Z,11.00
2023-02-27T17:09:21.210Z,14.33
2023-02-27T17:11:49.615Z,12.67
2023-02-27T17:14:16.403Z,12.33
2023-02-27T17:16:43.350Z,15.33
2023-02-27T17:19:10.636Z,12.00
2023-02-27T17:21:37.432Z,11.67
2023-02-27T17:24:04.558Z,12.67
2023-02-27T17:26:31.381Z,15.67
2023-02-27T17:28:59.838Z,14.33
2023-02-27T17:31:26.703Z,12.00
2023-02-27T17:33:53.790Z,14.00
2023-02-27T17:36:22.804Z,13.00
2023-02-27T17:38:54.617Z,12.33
2023-02-27T17:41:21.715Z,10.00
2023-02-27T17:43:50.534Z,8.67
2023-02-27T17:46:18.725Z,8.33
2023-02-27T17:48:45.548Z,4.00
2023-02-27T17:51:15.433Z,4.50
2023-02-27T17:53:42.631Z,1.00
2023-02-27T17:56:10.783Z,2.25
2023-02-27T17:58:37.699Z,4.50
2023-02-27T18:01:07.013Z,5.00
2023-02-27T18:03:35.596Z,5.00
2023-02-27T18:06:03.463Z,4.00
2023-02-27T18:08:31.376Z,5.00
2023-02-27T18:10:59.155Z,5.67
2023-02-27T18:13:26.904Z,4.00
2023-02-27T18:15:54.673Z,4.00
2023-02-27T18:18:22.913Z,3.00
2023-02-27T18:21:00.898Z,2.75
2023-02-27T18:23:27.954Z,2.00
2023-02-27T18:25:56.302Z,4.00
2023-02-27T18:28:23.482Z,3.75
2023-02-27T18:30:50.385Z,4.25
2023-02-27T18:33:20.322Z,4.25
2023-02-27T18:35:47.155Z,7.33
2023-02-27T18:38:15.661Z,25.33
2023-02-27T18:40:50.031Z,25.00
2023-02-27T18:43:27.731Z,18.33
2023-02-27T18:45:55.537Z,12.00
2023-02-27T18:48:22.610Z,9.67
2023-02-27T18:51:28.017Z,18.33
2023-02-27T18:53:57.208Z,9.33
2023-02-27T18:56:26.472Z,4.33
2023-02-27T18:58:57.687Z,3.00
2023-02-27T19:01:28.847Z,2.25
2023-02-27T19:03:59.353Z,3.67
2023-02-27T19:06:30.182Z,5.00
2023-02-27T19:09:04.556Z,3.67
2023-02-27T19:11:32.487Z,4.00
2023-02-27T19:14:00.491Z,3.33
2023-02-27T19:16:27.952Z,4.00
2023-02-27T19:18:55.949Z,3.00
2023-02-27T19:21:23.155Z,4.00
2023-02-27T19:23:50.883Z,4.00
2023-02-27T19:26:19.352Z,5.00
2023-02-27T19:28:46.324Z,3.33
2023-02-27T19:31:14.870Z,4.33
2023-02-27T19:33:42.644Z,3.67
2023-02-27T19:36:13.006Z,4.00
2023-02-27T19:38:40.992Z,3.00
2023-02-27T19:41:10.867Z,1.67
2023-02-27T19:43:40.802Z,3.33
2023-02-27T19:46:10.990Z,3.33
2023-02-27T19:48:39.073Z,3.67
2023-02-27T19:51:10.061Z,4.00
2023-02-27T19:53:40.103Z,4.00
2023-02-27T19:56:10.771Z,4.33
2023-02-27T19:58:39.501Z,4.67
2023-02-27T20:01:08.210Z,5.00
2023-02-27T20:03:38.772Z,4.00
2023-02-27T20:06:14.164Z,2.67
2023-02-27T20:08:40.908Z,0.00
2023-02-27T20:11:07.711Z,4.00
2023-02-27T20:13:34.690Z,2.67
2023-02-27T20:16:06.730Z,4.00
2023-02-27T20:18:35.744Z,3.33
2023-02-27T20:21:07.241Z,3.00
2023-02-27T20:23:37.095Z,0.00
2023-02-27T20:26:15.014Z,3.00
2023-02-27T20:28:42.863Z,4.33
2023-02-27T20:31:13.292Z,4.67
2023-02-27T20:33:41.715Z,3.67
2023-02-27T20:36:11.427Z,4.00
2023-02-27T20:38:43.088Z,1.00
2023-02-27T20:41:12.971Z,4.33
2023-02-27T20:43:40.720Z,5.00
2023-02-27T20:46:16.037Z,4.67
2023-02-27T20:48:44.346Z,5.00
2023-02-27T20:51:24.928Z,5.00
2023-02-27T20:53:55.746Z,5.00
2023-02-27T20:56:25.099Z,4.67
2023-02-27T20:58:52.192Z,5.00
2023-02-27T21:01:21.315Z,5.00
2023-02-27T21:03:49.099Z,4.67
2023-02-27T21:06:18.195Z,5.00
2023-02-27T21:08:49.890Z,5.67
2023-02-27T21:11:21.025Z,5.67
2023-02-27T21:13:48.314Z,4.00
2023-02-27T21:16:17.752Z,6.33
2023-02-27T21:18:46.425Z,7.00
2023-02-27T21:21:17.409Z,7.67
2023-02-27T21:23:44.536Z,7.00
2023-02-27T21:26:17.220Z,4.00
2023-02-27T21:28:50.071Z,8.00
2023-02-27T21:31:21.093Z,5.67
2023-02-27T21:33:51.322Z,4.00
2023-02-27T21:36:25.972Z,7.00
2023-02-27T21:38:56.361Z,7.33
2023-02-27T21:41:23.225Z,7.00
2023-02-27T21:43:50.783Z,8.00
2023-02-27T21:46:17.796Z,5.67
2023-02-27T21:48:44.638Z,8.67
2023-02-27T21:51:12.910Z,7.67
2023-02-27T21:53:39.749Z,7.67
2023-02-27T21:56:09.622Z,7.67
2023-02-27T21:58:37.765Z,7.00
2023-02-27T22:01:13.206Z,7.00
2023-02-27T22:03:40.116Z,8.33
2023-02-27T22:06:10.121Z,5.00
2023-02-27T22:08:38.723Z,8.00
2023-02-27T22:11:06.601Z,7.67
2023-02-27T22:13:34.446Z,8.00
2023-02-27T22:16:05.399Z,9.00
2023-02-27T22:18:33.012Z,7.33
2023-02-27T22:21:00.568Z,8.00
2023-02-27T22:23:28.307Z,7.67
2023-02-27T22:26:02.208Z,7.00
2023-02-27T22:28:32.671Z,8.00
2023-02-27T22:31:08.596Z,9.00
2023-02-27T22:33:36.359Z,8.33
2023-02-27T22:36:06.944Z,8.00
2023-02-27T22:38:33.972Z,8.00
2023-02-27T22:41:08.982Z,8.00
2023-02-27T22:43:37.238Z,9.33
2023-02-27T22:46:04.834Z,9.00
2023-02-27T22:48:32.191Z,12.00
2023-02-27T22:51:01.345Z,5.00
2023-02-27T22:53:28.158Z,8.33
2023-02-27T22:55:56.457Z,7.33
2023-02-27T22:58:25.030Z,8.00
2023-02-27T23:00:52.097Z,10.00
2023-02-27T23:03:18.908Z,9.00
2023-02-27T23:05:47.132Z,9.33
2023-02-27T23:08:14.241Z,9.00
2023-02-27T23:10:41.962Z,8.67
2023-02-27T23:13:09.141Z,9.00
2023-02-27T23:15:37.436Z,10.00
2023-02-27T23:18:05.154Z,7.67
2023-02-27T23:20:37.326Z,7.00
2023-02-27T23:23:04.548Z,6.00
2023-02-27T23:25:32.465Z,8.00
2023-02-27T23:27:59.771Z,9.00
2023-02-27T23:30:26.926Z,8.33
2023-02-27T23:32:56.826Z,8.67
2023-02-27T23:35:25.678Z,9.00
2023-02-27T23:37:55.013Z,8.00
2023-02-27T23:40:24.765Z,8.00
2023-02-27T23:42:52.110Z,6.33
2023-02-27T23:45:18.959Z,10.00
2023-02-27T23:47:45.793Z,9.00
2023-02-27T23:50:14.080Z,8.00
2023-02-27T23:52:40.857Z,7.67
2023-02-27T23:55:08.803Z,8.00
2023-02-27T23:57:35.584Z,7.33
